Terminal Aerodrome Forecast
Issued by NWS

Home | Current Version | Previous Version | Text Only | Print | Product List | Glossary Off
Versions: 1 2 3 4 5 6 7 8 9 10 11 12 13 14 15 16

000
FTUS43 KMPX 281700
TAFRWF
TAF
KRWF 281720Z 2818/2918 33006KT P6SM FEW025 BKN070
     FM281900 34008KT P6SM VCSH SCT030 BKN070
     FM290100 31004KT P6SM FEW050
     FM291500 31006KT P6SM SCT050=

USA.gov is the U.S. government's official web portal to all federal, state and local government web resources and services.